sensor_id;sensor_type;location;lat;lon;timestamp;pressure;altitude;pressure_sealevel;temperature
69420;BMP280;56612;52.030;113.524;2022-10-22T00:00:13;93997.16;;;-2.04
69420;BMP280;56612;52.030;113.524;2022-10-22T00:03:17;94000.19;;;-2.07
69420;BMP280;56612;52.030;113.524;2022-10-22T00:06:21;93999.25;;;-2.02
69420;BMP280;56612;52.030;113.524;2022-10-22T00:09:24;94005.56;;;-1.88
69420;BMP280;56612;52.030;113.524;2022-10-22T00:12:28;94003.03;;;-1.95
69420;BMP280;56612;52.030;113.524;2022-10-22T00:15:32;94005.69;;;-1.78
69420;BMP280;56612;52.030;113.524;2022-10-22T00:18:36;94014.78;;;-1.79
69420;BMP280;56612;52.030;113.524;2022-10-22T00:21:40;94024.31;;;-1.91
69420;BMP280;56612;52.030;113.524;2022-10-22T00:24:43;94015.44;;;-1.96
69420;BMP280;56612;52.030;113.524;2022-10-22T00:27:47;94024.31;;;-1.91
69420;BMP280;56612;52.030;113.524;2022-10-22T00:31:09;94030.66;;;-2.02
69420;BMP280;56612;52.030;113.524;2022-10-22T00:34:12;94025.19;;;-2.14
69420;BMP280;56612;52.030;113.524;2022-10-22T00:37:16;94028.91;;;-2.00
69420;BMP280;56612;52.030;113.524;2022-10-22T00:40:19;94009.13;;;-1.93
69420;BMP280;56612;52.030;113.524;2022-10-22T00:43:22;94008.59;;;-1.66
69420;BMP280;56612;52.030;113.524;2022-10-22T00:46:27;94017.28;;;-1.47
69420;BMP280;56612;52.030;113.524;2022-10-22T00:49:30;94033.03;;;-1.29
69420;BMP280;56612;52.030;113.524;2022-10-22T00:52:34;94023.16;;;-1.04
69420;BMP280;56612;52.030;113.524;2022-10-22T00:55:39;94032.50;;;-0.83
69420;BMP280;56612;52.030;113.524;2022-10-22T00:58:51;94033.56;;;-0.69
69420;BMP280;56612;52.030;113.524;2022-10-22T01:01:56;94026.06;;;-0.82
69420;BMP280;56612;52.030;113.524;2022-10-22T01:04:59;94034.91;;;-0.78
69420;BMP280;56612;52.030;113.524;2022-10-22T01:08:02;94023.66;;;-0.88
69420;BMP280;56612;52.030;113.524;2022-10-22T01:17:49;94048.81;;;-0.85
69420;BMP280;56612;52.030;113.524;2022-10-22T01:24:27;94046.63;;;-0.79
69420;BMP280;56612;52.030;113.524;2022-10-22T01:31:09;94053.78;;;-0.62
69420;BMP280;56612;52.030;113.524;2022-10-22T01:34:16;94063.28;;;-0.67
69420;BMP280;56612;52.030;113.524;2022-10-22T01:37:23;94066.44;;;-0.51
69420;BMP280;56612;52.030;113.524;2022-10-22T01:40:27;94063.28;;;-0.13
69420;BMP280;56612;52.030;113.524;2022-10-22T01:43:32;94055.63;;;0.09
69420;BMP280;56612;52.030;113.524;2022-10-22T01:46:36;94055.81;;;0.40
69420;BMP280;56612;52.030;113.524;2022-10-22T02:48:34;94043.97;;;2.40
69420;BMP280;56612;52.030;113.524;2022-10-22T02:51:37;94043.38;;;2.30
69420;BMP280;56612;52.030;113.524;2022-10-22T02:54:40;94038.88;;;2.32
69420;BMP280;56612;52.030;113.524;2022-10-22T02:57:43;94046.84;;;2.44
69420;BMP280;56612;52.030;113.524;2022-10-22T03:00:47;94047.72;;;2.58
69420;BMP280;56612;52.030;113.524;2022-10-22T03:03:51;94042.81;;;2.64
69420;BMP280;56612;52.030;113.524;2022-10-22T03:06:54;94038.78;;;2.85
69420;BMP280;56612;52.030;113.524;2022-10-22T03:09:57;94044.88;;;2.99
69420;BMP280;56612;52.030;113.524;2022-10-22T03:13:01;94049.19;;;3.16
69420;BMP280;56612;52.030;113.524;2022-10-22T03:16:05;94037.84;;;3.37
69420;BMP280;56612;52.030;113.524;2022-10-22T03:19:08;94035.00;;;3.56
69420;BMP280;56612;52.030;113.524;2022-10-22T03:22:32;94045.34;;;3.75
69420;BMP280;56612;52.030;113.524;2022-10-22T03:25:39;94045.78;;;3.83
69420;BMP280;56612;52.030;113.524;2022-10-22T03:28:44;94034.38;;;4.04
69420;BMP280;56612;52.030;113.524;2022-10-22T03:31:49;94041.56;;;4.39
69420;BMP280;56612;52.030;113.524;2022-10-22T03:34:53;94049.28;;;4.35
69420;BMP280;56612;52.030;113.524;2022-10-22T03:37:59;94044.19;;;4.76
69420;BMP280;56612;52.030;113.524;2022-10-22T03:41:03;94052.56;;;4.84
69420;BMP280;56612;52.030;113.524;2022-10-22T03:44:07;94049.22;;;4.84
69420;BMP280;56612;52.030;113.524;2022-10-22T03:47:10;94056.59;;;4.85
69420;BMP280;56612;52.030;113.524;2022-10-22T03:50:13;94046.53;;;4.70
69420;BMP280;56612;52.030;113.524;2022-10-22T03:53:16;94049.19;;;4.58
69420;BMP280;56612;52.030;113.524;2022-10-22T03:56:20;94044.53;;;4.45
69420;BMP280;56612;52.030;113.524;2022-10-22T03:59:23;94040.38;;;4.54
69420;BMP280;56612;52.030;113.524;2022-10-22T04:02:26;94028.16;;;4.86
69420;BMP280;56612;52.030;113.524;2022-10-22T04:05:32;94032.19;;;5.39
69420;BMP280;56612;52.030;113.524;2022-10-22T04:08:38;94035.69;;;5.83
69420;BMP280;56612;52.030;113.524;2022-10-22T04:11:41;94040.94;;;6.11
69420;BMP280;56612;52.030;113.524;2022-10-22T04:14:44;94046.13;;;6.36
69420;BMP280;56612;52.030;113.524;2022-10-22T04:17:47;94045.06;;;6.27
69420;BMP280;56612;52.030;113.524;2022-10-22T04:20:51;94040.63;;;6.18
69420;BMP280;56612;52.030;113.524;2022-10-22T04:23:54;94049.13;;;6.15
69420;BMP280;56612;52.030;113.524;2022-10-22T04:26:58;94044.66;;;6.19
69420;BMP280;56612;52.030;113.524;2022-10-22T04:30:03;94041.34;;;6.48
69420;BMP280;56612;52.030;113.524;2022-10-22T04:33:08;94036.53;;;6.74
69420;BMP280;56612;52.030;113.524;2022-10-22T04:36:13;94042.38;;;6.86
69420;BMP280;56612;52.030;113.524;2022-10-22T04:39:17;94035.13;;;7.03
69420;BMP280;56612;52.030;113.524;2022-10-22T04:42:20;94034.00;;;6.92
69420;BMP280;56612;52.030;113.524;2022-10-22T04:45:23;94032.38;;;6.85
69420;BMP280;56612;52.030;113.524;2022-10-22T04:48:27;94027.84;;;7.03
69420;BMP280;56612;52.030;113.524;2022-10-22T04:51:31;94029.28;;;7.38
69420;BMP280;56612;52.030;113.524;2022-10-22T04:54:35;94025.09;;;7.48
69420;BMP280;56612;52.030;113.524;2022-10-22T04:57:39;94031.88;;;7.51
69420;BMP280;56612;52.030;113.524;2022-10-22T05:00:43;94025.72;;;7.31
69420;BMP280;56612;52.030;113.524;2022-10-22T05:03:49;94029.06;;;7.16
69420;BMP280;56612;52.030;113.524;2022-10-22T05:06:52;94016.88;;;6.95
69420;BMP280;56612;52.030;113.524;2022-10-22T05:09:55;94020.66;;;7.21
69420;BMP280;56612;52.030;113.524;2022-10-22T05:12:58;94021.66;;;7.46
69420;BMP280;56612;52.030;113.524;2022-10-22T05:16:02;94021.59;;;7.12
69420;BMP280;56612;52.030;113.524;2022-10-22T05:19:06;94017.59;;;6.66
69420;BMP280;56612;52.030;113.524;2022-10-22T05:22:09;94009.44;;;6.32
69420;BMP280;56612;52.030;113.524;2022-10-22T05:25:13;94016.63;;;5.87
69420;BMP280;56612;52.030;113.524;2022-10-22T05:28:17;94007.88;;;5.70
69420;BMP280;56612;52.030;113.524;2022-10-22T05:31:21;94004.63;;;5.58
69420;BMP280;56612;52.030;113.524;2022-10-22T05:34:24;94003.25;;;5.57
69420;BMP280;56612;52.030;113.524;2022-10-22T05:37:28;94002.25;;;5.51
69420;BMP280;56612;52.030;113.524;2022-10-22T05:40:31;94005.00;;;5.39
69420;BMP280;56612;52.030;113.524;2022-10-22T05:43:35;94002.47;;;5.27
69420;BMP280;56612;52.030;113.524;2022-10-22T05:46:39;94002.59;;;5.43
69420;BMP280;56612;52.030;113.524;2022-10-22T05:49:42;93997.28;;;5.43
69420;BMP280;56612;52.030;113.524;2022-10-22T05:52:46;93996.47;;;5.40
69420;BMP280;56612;52.030;113.524;2022-10-22T05:55:50;94002.03;;;6.90
69420;BMP280;56612;52.030;113.524;2022-10-22T05:58:54;93993.59;;;7.58
69420;BMP280;56612;52.030;113.524;2022-10-22T06:01:57;93991.47;;;8.06
69420;BMP280;56612;52.030;113.524;2022-10-22T06:05:01;93984.81;;;8.78
69420;BMP280;56612;52.030;113.524;2022-10-22T06:08:04;93995.22;;;8.35
69420;BMP280;56612;52.030;113.524;2022-10-22T06:11:07;93995.28;;;8.01
69420;BMP280;56612;52.030;113.524;2022-10-22T06:14:10;93988.47;;;7.80
69420;BMP280;56612;52.030;113.524;2022-10-22T06:17:15;93996.03;;;7.52
69420;BMP280;56612;52.030;113.524;2022-10-22T06:20:18;93992.34;;;7.28
69420;BMP280;56612;52.030;113.524;2022-10-22T06:23:22;93993.81;;;7.15
69420;BMP280;56612;52.030;113.524;2022-10-22T06:26:26;93990.81;;;7.23
69420;BMP280;56612;52.030;113.524;2022-10-22T06:29:29;93985.72;;;6.97
69420;BMP280;56612;52.030;113.524;2022-10-22T06:32:33;93982.50;;;6.83
69420;BMP280;56612;52.030;113.524;2022-10-22T06:35:36;93984.38;;;6.81
69420;BMP280;56612;52.030;113.524;2022-10-22T06:38:40;93980.00;;;6.87
69420;BMP280;56612;52.030;113.524;2022-10-22T06:41:44;93978.72;;;6.88
69420;BMP280;56612;52.030;113.524;2022-10-22T06:44:51;93975.72;;;6.80
69420;BMP280;56612;52.030;113.524;2022-10-22T06:47:55;93969.63;;;6.78
69420;BMP280;56612;52.030;113.524;2022-10-22T06:51:02;93976.50;;;6.98
69420;BMP280;56612;52.030;113.524;2022-10-22T06:54:06;93973.91;;;7.01
69420;BMP280;56612;52.030;113.524;2022-10-22T06:57:09;93968.97;;;7.09
69420;BMP280;56612;52.030;113.524;2022-10-22T07:00:13;93959.88;;;6.98
69420;BMP280;56612;52.030;113.524;2022-10-22T07:03:17;93962.25;;;6.92
69420;BMP280;56612;52.030;113.524;2022-10-22T07:06:22;93961.75;;;6.95
69420;BMP280;56612;52.030;113.524;2022-10-22T07:09:25;93958.84;;;6.89
69420;BMP280;56612;52.030;113.524;2022-10-22T07:12:28;93958.22;;;6.75
69420;BMP280;56612;52.030;113.524;2022-10-22T07:15:31;93954.56;;;6.66
69420;BMP280;56612;52.030;113.524;2022-10-22T07:18:36;93947.75;;;6.63
69420;BMP280;56612;52.030;113.524;2022-10-22T07:21:40;93958.88;;;6.60
69420;BMP280;56612;52.030;113.524;2022-10-22T07:24:43;93954.69;;;6.55
69420;BMP280;56612;52.030;113.524;2022-10-22T07:27:47;93963.66;;;6.48
69420;BMP280;56612;52.030;113.524;2022-10-22T07:30:50;93963.66;;;6.48
69420;BMP280;56612;52.030;113.524;2022-10-22T07:33:53;93955.88;;;6.52
69420;BMP280;56612;52.030;113.524;2022-10-22T07:36:57;93962.75;;;6.57
69420;BMP280;56612;52.030;113.524;2022-10-22T07:40:01;93957.50;;;6.43
69420;BMP280;56612;52.030;113.524;2022-10-22T07:43:05;93962.53;;;6.37
69420;BMP280;56612;52.030;113.524;2022-10-22T07:46:09;93957.16;;;6.21
69420;BMP280;56612;52.030;113.524;2022-10-22T07:49:13;93961.09;;;6.20
69420;BMP280;56612;52.030;113.524;2022-10-22T07:52:17;93957.00;;;6.17
69420;BMP280;56612;52.030;113.524;2022-10-22T07:55:21;93962.81;;;6.14
69420;BMP280;56612;52.030;113.524;2022-10-22T07:58:25;93967.63;;;6.17
69420;BMP280;56612;52.030;113.524;2022-10-22T08:01:29;93969.84;;;6.23
69420;BMP280;56612;52.030;113.524;2022-10-22T08:04:33;93969.38;;;6.26
69420;BMP280;56612;52.030;113.524;2022-10-22T08:07:36;93963.38;;;6.26
69420;BMP280;56612;52.030;113.524;2022-10-22T08:10:40;93957.94;;;6.24
69420;BMP280;56612;52.030;113.524;2022-10-22T08:13:44;93967.69;;;6.19
69420;BMP280;56612;52.030;113.524;2022-10-22T08:16:48;93971.84;;;6.09
69420;BMP280;56612;52.030;113.524;2022-10-22T08:19:52;93968.06;;;5.98
69420;BMP280;56612;52.030;113.524;2022-10-22T08:22:56;93976.53;;;5.81
69420;BMP280;56612;52.030;113.524;2022-10-22T08:26:00;93978.19;;;5.60
69420;BMP280;56612;52.030;113.524;2022-10-22T08:29:05;93986.69;;;5.43
69420;BMP280;56612;52.030;113.524;2022-10-22T08:32:08;93986.16;;;5.33
69420;BMP280;56612;52.030;113.524;2022-10-22T08:35:12;93987.84;;;5.26
69420;BMP280;56612;52.030;113.524;2022-10-22T08:38:19;93990.34;;;5.10
69420;BMP280;56612;52.030;113.524;2022-10-22T08:41:23;94004.63;;;5.86
69420;BMP280;56612;52.030;113.524;2022-10-22T08:51:20;93998.72;;;5.46
69420;BMP280;56612;52.030;113.524;2022-10-22T08:54:58;94000.44;;;5.00
69420;BMP280;56612;52.030;113.524;2022-10-22T09:01:38;94005.63;;;4.47
69420;BMP280;56612;52.030;113.524;2022-10-22T09:04:46;94001.94;;;4.27
69420;BMP280;56612;52.030;113.524;2022-10-22T09:07:52;94008.28;;;4.10
69420;BMP280;56612;52.030;113.524;2022-10-22T09:11:02;94011.75;;;4.01
69420;BMP280;56612;52.030;113.524;2022-10-22T09:14:15;94016.25;;;3.87
69420;BMP280;56612;52.030;113.524;2022-10-22T09:17:49;94006.28;;;3.74
69420;BMP280;56612;52.030;113.524;2022-10-22T09:21:37;93999.03;;;3.63
69420;BMP280;56612;52.030;113.524;2022-10-22T09:24:47;94002.16;;;3.47
69420;BMP280;56612;52.030;113.524;2022-10-22T09:27:51;94005.25;;;3.44
69420;BMP280;56612;52.030;113.524;2022-10-22T09:30:56;94005.47;;;3.36
69420;BMP280;56612;52.030;113.524;2022-10-22T09:34:05;94001.88;;;3.32
69420;BMP280;56612;52.030;113.524;2022-10-22T09:37:10;94006.06;;;3.23
69420;BMP280;56612;52.030;113.524;2022-10-22T09:40:14;94001.97;;;3.10
69420;BMP280;56612;52.030;113.524;2022-10-22T09:43:18;94010.13;;;3.03
69420;BMP280;56612;52.030;113.524;2022-10-22T09:46:23;94007.03;;;2.94
69420;BMP280;56612;52.030;113.524;2022-10-22T09:49:29;94017.78;;;2.87
69420;BMP280;56612;52.030;113.524;2022-10-22T09:52:35;94019.13;;;2.76
69420;BMP280;56612;52.030;113.524;2022-10-22T09:55:43;94015.53;;;2.72
69420;BMP280;56612;52.030;113.524;2022-10-22T09:58:49;94016.66;;;2.69
69420;BMP280;56612;52.030;113.524;2022-10-22T10:02:20;94015.97;;;2.68
69420;BMP280;56612;52.030;113.524;2022-10-22T10:05:35;94017.44;;;2.59
69420;BMP280;56612;52.030;113.524;2022-10-22T10:08:40;94023.63;;;2.52
69420;BMP280;56612;52.030;113.524;2022-10-22T10:11:48;94026.25;;;2.52
69420;BMP280;56612;52.030;113.524;2022-10-22T10:18:06;94033.34;;;2.50
69420;BMP280;56612;52.030;113.524;2022-10-22T10:41:31;94046.09;;;2.32
69420;BMP280;56612;52.030;113.524;2022-10-22T10:52:06;94049.28;;;2.09
69420;BMP280;56612;52.030;113.524;2022-10-22T11:05:44;94065.19;;;1.90
69420;BMP280;56612;52.030;113.524;2022-10-22T11:09:01;94070.09;;;1.84
69420;BMP280;56612;52.030;113.524;2022-10-22T11:12:17;94072.34;;;1.78
69420;BMP280;56612;52.030;113.524;2022-10-22T11:15:30;94059.56;;;1.74
69420;BMP280;56612;52.030;113.524;2022-10-22T11:18:52;94063.47;;;1.73
69420;BMP280;56612;52.030;113.524;2022-10-22T11:22:07;94057.25;;;1.68
69420;BMP280;56612;52.030;113.524;2022-10-22T11:25:17;94062.91;;;1.65
69420;BMP280;56612;52.030;113.524;2022-10-22T11:28:26;94066.69;;;1.62
69420;BMP280;56612;52.030;113.524;2022-10-22T11:31:32;94066.28;;;1.56
69420;BMP280;56612;52.030;113.524;2022-10-22T11:34:44;94062.41;;;1.57
69420;BMP280;56612;52.030;113.524;2022-10-22T11:37:49;94067.41;;;1.53
69420;BMP280;56612;52.030;113.524;2022-10-22T11:40:59;94058.66;;;1.50
69420;BMP280;56612;52.030;113.524;2022-10-22T11:44:22;94059.38;;;1.51
69420;BMP280;56612;52.030;113.524;2022-10-22T11:47:33;94063.25;;;1.40
69420;BMP280;56612;52.030;113.524;2022-10-22T11:50:50;94057.47;;;1.32
69420;BMP280;56612;52.030;113.524;2022-10-22T11:54:01;94066.75;;;1.33
69420;BMP280;56612;52.030;113.524;2022-10-22T12:00:40;94060.63;;;1.40
69420;BMP280;56612;52.030;113.524;2022-10-22T12:03:50;94061.59;;;1.35
69420;BMP280;56612;52.030;113.524;2022-10-22T12:07:01;94063.31;;;1.30
69420;BMP280;56612;52.030;113.524;2022-10-22T12:10:19;94057.09;;;1.26
69420;BMP280;56612;52.030;113.524;2022-10-22T12:13:25;94055.97;;;1.19
69420;BMP280;56612;52.030;113.524;2022-10-22T12:16:36;94062.50;;;1.18
69420;BMP280;56612;52.030;113.524;2022-10-22T12:20:14;94058.19;;;1.13
69420;BMP280;56612;52.030;113.524;2022-10-22T12:23:25;94063.31;;;1.11
69420;BMP280;56612;52.030;113.524;2022-10-22T12:26:32;94065.56;;;1.05
69420;BMP280;56612;52.030;113.524;2022-10-22T12:29:38;94053.66;;;0.84
69420;BMP280;56612;52.030;113.524;2022-10-22T12:32:42;94059.44;;;0.83
69420;BMP280;56612;52.030;113.524;2022-10-22T12:35:46;94060.28;;;0.76
69420;BMP280;56612;52.030;113.524;2022-10-22T12:38:50;94057.38;;;0.72
69420;BMP280;56612;52.030;113.524;2022-10-22T12:41:54;94053.09;;;0.67
69420;BMP280;56612;52.030;113.524;2022-10-22T12:44:58;94056.28;;;0.65
69420;BMP280;56612;52.030;113.524;2022-10-22T12:48:12;94057.09;;;0.68
69420;BMP280;56612;52.030;113.524;2022-10-22T12:51:19;94056.41;;;0.67
69420;BMP280;56612;52.030;113.524;2022-10-22T12:54:25;94063.75;;;0.69
69420;BMP280;56612;52.030;113.524;2022-10-22T12:57:29;94064.41;;;0.59
69420;BMP280;56612;52.030;113.524;2022-10-22T13:00:34;94070.78;;;0.56
69420;BMP280;56612;52.030;113.524;2022-10-22T13:03:49;94070.09;;;0.46
69420;BMP280;56612;52.030;113.524;2022-10-22T13:10:40;94064.78;;;0.17
69420;BMP280;56612;52.030;113.524;2022-10-22T13:13:43;94064.06;;;0.07
69420;BMP280;56612;52.030;113.524;2022-10-22T13:17:04;94068.91;;;0.11
69420;BMP280;56612;52.030;113.524;2022-10-22T13:20:21;94068.78;;;0.18
69420;BMP280;56612;52.030;113.524;2022-10-22T13:23:27;94083.47;;;0.21
69420;BMP280;56612;52.030;113.524;2022-10-22T13:26:35;94084.44;;;-0.20
69420;BMP280;56612;52.030;113.524;2022-10-22T13:29:40;94082.72;;;-0.25
69420;BMP280;56612;52.030;113.524;2022-10-22T13:32:49;94072.28;;;-0.33
69420;BMP280;56612;52.030;113.524;2022-10-22T13:35:54;94085.44;;;-0.33
69420;BMP280;56612;52.030;113.524;2022-10-22T13:38:58;94077.88;;;-0.29
69420;BMP280;56612;52.030;113.524;2022-10-22T13:42:09;94086.19;;;-0.23
69420;BMP280;56612;52.030;113.524;2022-10-22T13:45:14;94086.06;;;-0.25
69420;BMP280;56612;52.030;113.524;2022-10-22T13:48:20;94093.78;;;-0.27
69420;BMP280;56612;52.030;113.524;2022-10-22T13:51:33;94089.47;;;-0.32
69420;BMP280;56612;52.030;113.524;2022-10-22T13:54:37;94094.41;;;-0.36
69420;BMP280;56612;52.030;113.524;2022-10-22T13:57:41;94092.31;;;-0.38
69420;BMP280;56612;52.030;113.524;2022-10-22T14:00:48;94101.81;;;-0.42
69420;BMP280;56612;52.030;113.524;2022-10-22T14:03:55;94097.53;;;-0.47
69420;BMP280;56612;52.030;113.524;2022-10-22T14:07:00;94098.31;;;-0.54
69420;BMP280;56612;52.030;113.524;2022-10-22T14:10:25;94098.84;;;-0.56
69420;BMP280;56612;52.030;113.524;2022-10-22T14:13:28;94091.47;;;-0.67
69420;BMP280;56612;52.030;113.524;2022-10-22T14:16:31;94103.81;;;-0.77
69420;BMP280;56612;52.030;113.524;2022-10-22T14:19:36;94107.00;;;-0.79
69420;BMP280;56612;52.030;113.524;2022-10-22T14:22:39;94107.06;;;-0.87
69420;BMP280;56612;52.030;113.524;2022-10-22T14:25:43;94111.69;;;-0.95
69420;BMP280;56612;52.030;113.524;2022-10-22T14:28:46;94106.00;;;-1.01
69420;BMP280;56612;52.030;113.524;2022-10-22T14:32:19;94109.06;;;-0.95
69420;BMP280;56612;52.030;113.524;2022-10-22T14:35:22;94108.00;;;-0.92
69420;BMP280;56612;52.030;113.524;2022-10-22T14:38:27;94102.50;;;-0.86
69420;BMP280;56612;52.030;113.524;2022-10-22T14:41:30;94104.59;;;-0.84
69420;BMP280;56612;52.030;113.524;2022-10-22T14:44:35;94107.53;;;-0.80
69420;BMP280;56612;52.030;113.524;2022-10-22T14:47:38;94104.13;;;-0.73
69420;BMP280;56612;52.030;113.524;2022-10-22T14:50:46;94097.66;;;-0.72
69420;BMP280;56612;52.030;113.524;2022-10-22T14:53:50;94108.53;;;-0.76
69420;BMP280;56612;52.030;113.524;2022-10-22T14:56:54;94100.03;;;-0.84
69420;BMP280;56612;52.030;113.524;2022-10-22T14:59:57;94101.97;;;-0.84
69420;BMP280;56612;52.030;113.524;2022-10-22T15:03:01;94099.28;;;-0.94
69420;BMP280;56612;52.030;113.524;2022-10-22T15:06:06;94105.53;;;-1.07
69420;BMP280;56612;52.030;113.524;2022-10-22T15:09:10;94110.25;;;-1.23
69420;BMP280;56612;52.030;113.524;2022-10-22T15:12:14;94091.22;;;-1.48
69420;BMP280;56612;52.030;113.524;2022-10-22T15:15:18;94104.00;;;-1.52
69420;BMP280;56612;52.030;113.524;2022-10-22T15:18:25;94104.44;;;-1.63
69420;BMP280;56612;52.030;113.524;2022-10-22T15:21:29;94109.00;;;-1.64
69420;BMP280;56612;52.030;113.524;2022-10-22T15:24:33;94105.91;;;-1.70
69420;BMP280;56612;52.030;113.524;2022-10-22T15:27:37;94108.31;;;-1.64
69420;BMP280;56612;52.030;113.524;2022-10-22T15:30:41;94100.22;;;-1.59
69420;BMP280;56612;52.030;113.524;2022-10-22T15:33:44;94103.59;;;-1.66
69420;BMP280;56612;52.030;113.524;2022-10-22T15:36:48;94102.28;;;-1.75
69420;BMP280;56612;52.030;113.524;2022-10-22T15:39:52;94106.31;;;-1.81
69420;BMP280;56612;52.030;113.524;2022-10-22T15:42:56;94103.03;;;-1.89
69420;BMP280;56612;52.030;113.524;2022-10-22T15:46:18;94104.25;;;-1.90
69420;BMP280;56612;52.030;113.524;2022-10-22T15:49:23;94108.28;;;-1.89
69420;BMP280;56612;52.030;113.524;2022-10-22T15:52:28;94108.28;;;-1.89
69420;BMP280;56612;52.030;113.524;2022-10-22T15:55:33;94105.50;;;-1.91
69420;BMP280;56612;52.030;113.524;2022-10-22T15:58:37;94100.09;;;-1.93
69420;BMP280;56612;52.030;113.524;2022-10-22T16:01:41;94110.28;;;-1.97
69420;BMP280;56612;52.030;113.524;2022-10-22T16:04:44;94108.03;;;-2.09
69420;BMP280;56612;52.030;113.524;2022-10-22T16:07:47;94101.91;;;-2.04
69420;BMP280;56612;52.030;113.524;2022-10-22T16:10:53;94106.03;;;-1.85
69420;BMP280;56612;52.030;113.524;2022-10-22T16:13:58;94107.66;;;-1.73
69420;BMP280;56612;52.030;113.524;2022-10-22T16:17:02;94111.63;;;-1.64
69420;BMP280;56612;52.030;113.524;2022-10-22T16:20:06;94108.94;;;-1.56
69420;BMP280;56612;52.030;113.524;2022-10-22T16:23:10;94099.75;;;-1.65
69420;BMP280;56612;52.030;113.524;2022-10-22T16:26:15;94097.13;;;-1.65
69420;BMP280;56612;52.030;113.524;2022-10-22T16:29:20;94089.44;;;-1.63
69420;BMP280;56612;52.030;113.524;2022-10-22T16:32:23;94081.06;;;-1.69
69420;BMP280;56612;52.030;113.524;2022-10-22T16:35:26;94072.66;;;-1.85
69420;BMP280;56612;52.030;113.524;2022-10-22T16:38:29;94079.75;;;-1.78
69420;BMP280;56612;52.030;113.524;2022-10-22T16:41:33;94074.28;;;-1.97
69420;BMP280;56612;52.030;113.524;2022-10-22T16:44:37;94082.91;;;-2.04
69420;BMP280;56612;52.030;113.524;2022-10-22T16:47:41;94084.97;;;-2.03
69420;BMP280;56612;52.030;113.524;2022-10-22T16:50:45;94073.75;;;-1.95
69420;BMP280;56612;52.030;113.524;2022-10-22T16:53:53;94075.59;;;-1.81
69420;BMP280;56612;52.030;113.524;2022-10-22T16:56:57;94079.97;;;-1.83
69420;BMP280;56612;52.030;113.524;2022-10-22T17:00:03;94074.28;;;-1.72
69420;BMP280;56612;52.030;113.524;2022-10-22T17:03:10;94075.28;;;-1.67
69420;BMP280;56612;52.030;113.524;2022-10-22T17:06:14;94068.50;;;-1.70
69420;BMP280;56612;52.030;113.524;2022-10-22T17:09:18;94063.91;;;-1.62
69420;BMP280;56612;52.030;113.524;2022-10-22T17:12:22;94066.91;;;-1.66
69420;BMP280;56612;52.030;113.524;2022-10-22T17:15:26;94072.47;;;-1.62
69420;BMP280;56612;52.030;113.524;2022-10-22T17:18:31;94069.75;;;-1.72
69420;BMP280;56612;52.030;113.524;2022-10-22T17:21:35;94063.72;;;-1.82
69420;BMP280;56612;52.030;113.524;2022-10-22T17:24:39;94070.03;;;-1.85
69420;BMP280;56612;52.030;113.524;2022-10-22T17:27:46;94066.81;;;-2.01
69420;BMP280;56612;52.030;113.524;2022-10-22T17:30:50;94065.41;;;-2.02
69420;BMP280;56612;52.030;113.524;2022-10-22T17:33:54;94054.41;;;-2.00
69420;BMP280;56612;52.030;113.524;2022-10-22T17:36:58;94062.09;;;-2.02
69420;BMP280;56612;52.030;113.524;2022-10-22T17:40:03;94064.19;;;-2.01
69420;BMP280;56612;52.030;113.524;2022-10-22T17:43:07;94055.78;;;-1.99
69420;BMP280;56612;52.030;113.524;2022-10-22T17:46:22;94058.16;;;-1.86
69420;BMP280;56612;52.030;113.524;2022-10-22T17:49:26;94065.75;;;-1.73
69420;BMP280;56612;52.030;113.524;2022-10-22T17:52:30;94051.94;;;-1.73
69420;BMP280;56612;52.030;113.524;2022-10-22T17:55:34;94041.38;;;-1.83
69420;BMP280;56612;52.030;113.524;2022-10-22T17:58:37;94049.31;;;-1.73
69420;BMP280;56612;52.030;113.524;2022-10-22T18:01:41;94052.41;;;-1.67
69420;BMP280;56612;52.030;113.524;2022-10-22T18:04:50;94057.44;;;-1.61
69420;BMP280;56612;52.030;113.524;2022-10-22T18:07:55;94051.66;;;-1.60
69420;BMP280;56612;52.030;113.524;2022-10-22T18:10:59;94047.66;;;-1.61
69420;BMP280;56612;52.030;113.524;2022-10-22T18:14:03;94046.03;;;-1.56
69420;BMP280;56612;52.030;113.524;2022-10-22T18:17:07;94052.69;;;-1.55
69420;BMP280;56612;52.030;113.524;2022-10-22T18:20:11;94053.97;;;-1.64
69420;BMP280;56612;52.030;113.524;2022-10-22T18:23:15;94043.06;;;-1.78
69420;BMP280;56612;52.030;113.524;2022-10-22T18:26:20;94053.53;;;-1.78
69420;BMP280;56612;52.030;113.524;2022-10-22T18:29:28;94055.47;;;-1.78
69420;BMP280;56612;52.030;113.524;2022-10-22T18:32:33;94053.81;;;-1.66
69420;BMP280;56612;52.030;113.524;2022-10-22T18:35:36;94051.19;;;-1.66
69420;BMP280;56612;52.030;113.524;2022-10-22T18:38:40;94047.34;;;-1.65
69420;BMP280;56612;52.030;113.524;2022-10-22T18:41:44;94056.84;;;-1.52
69420;BMP280;56612;52.030;113.524;2022-10-22T18:44:51;94055.66;;;-1.59
69420;BMP280;56612;52.030;113.524;2022-10-22T18:47:54;94055.66;;;-1.59
69420;BMP280;56612;52.030;113.524;2022-10-22T18:51:02;94048.34;;;-1.60
69420;BMP280;56612;52.030;113.524;2022-10-22T18:54:06;94048.50;;;-1.58
69420;BMP280;56612;52.030;113.524;2022-10-22T18:57:25;94051.66;;;-1.60
69420;BMP280;56612;52.030;113.524;2022-10-22T19:00:29;94052.34;;;-1.59
69420;BMP280;56612;52.030;113.524;2022-10-22T19:03:33;94058.28;;;-1.59
69420;BMP280;56612;52.030;113.524;2022-10-22T19:06:37;94056.69;;;-1.54
69420;BMP280;56612;52.030;113.524;2022-10-22T19:09:47;94048.66;;;-1.39
69420;BMP280;56612;52.030;113.524;2022-10-22T19:12:50;94039.91;;;-1.34
69420;BMP280;56612;52.030;113.524;2022-10-22T19:16:01;94042.13;;;-1.30
69420;BMP280;56612;52.030;113.524;2022-10-22T19:19:06;94040.59;;;-1.16
69420;BMP280;56612;52.030;113.524;2022-10-22T19:22:10;94034.66;;;-1.17
69420;BMP280;56612;52.030;113.524;2022-10-22T19:25:14;94036.91;;;-1.30
69420;BMP280;56612;52.030;113.524;2022-10-22T19:28:18;94037.88;;;-1.43
69420;BMP280;56612;52.030;113.524;2022-10-22T19:31:23;94023.16;;;-1.56
69420;BMP280;56612;52.030;113.524;2022-10-22T19:34:26;94024.06;;;-1.61
69420;BMP280;56612;52.030;113.524;2022-10-22T19:37:30;94030.16;;;-1.58
69420;BMP280;56612;52.030;113.524;2022-10-22T19:40:34;94022.97;;;-1.58